createdAt,value
2023-05-07T00:05:25.042Z,390.87
2023-05-07T00:16:54.575Z,390.51
2023-05-07T00:22:19.149Z,390.53
2023-05-07T00:28:09.688Z,390.06
2023-05-07T00:33:21.481Z,390.40
2023-05-07T00:39:23.873Z,390.68
2023-05-07T00:44:38.805Z,389.76
2023-05-07T00:50:09.654Z,390.07
2023-05-07T00:55:22.328Z,390.22
2023-05-07T01:00:39.991Z,390.25
2023-05-07T01:05:53.869Z,390.65
2023-05-07T01:11:06.336Z,391.30
2023-05-07T01:20:46.298Z,391.86
2023-05-07T01:21:45.995Z,392.28
2023-05-07T01:27:47.688Z,392.15
2023-05-07T01:32:30.664Z,391.77
2023-05-07T01:37:36.903Z,391.79
2023-05-07T01:43:39.422Z,392.20
2023-05-07T01:49:22.434Z,392.17
2023-05-07T01:54:34.132Z,391.71
2023-05-07T02:00:24.696Z,391.19
2023-05-07T02:06:14.179Z,391.09
2023-05-07T02:14:03.190Z,391.53
2023-05-07T02:16:54.447Z,392.12
2023-05-07T02:27:18.754Z,391.78
2023-05-07T02:27:23.951Z,391.89
2023-05-07T02:33:16.387Z,391.52
2023-05-07T02:38:35.434Z,391.22
2023-05-07T02:44:20.401Z,390.73
2023-05-07T02:50:36.612Z,390.92
2023-05-07T02:55:26.372Z,390.81
2023-05-07T03:01:04.884Z,391.13
2023-05-07T03:06:26.754Z,391.72
2023-05-07T03:11:53.192Z,392.36
2023-05-07T03:17:41.129Z,392.66
2023-05-07T03:23:12.687Z,392.45
2023-05-07T03:28:22.089Z,391.78
2023-05-07T03:40:00.891Z,391.94
2023-05-07T03:45:33.222Z,391.85
2023-05-07T03:56:09.775Z,391.65
2023-05-07T04:00:32.620Z,390.87
2023-05-07T04:05:44.926Z,391.05
2023-05-07T04:16:09.389Z,391.69
2023-05-07T04:16:21.087Z,390.68
2023-05-07T04:21:28.058Z,390.73
2023-05-07T04:26:52.326Z,390.01
2023-05-07T04:32:14.905Z,389.84
2023-05-07T04:37:25.919Z,389.22
2023-05-07T04:44:27.369Z,389.25
2023-05-07T04:48:17.463Z,389.06
2023-05-07T04:53:34.901Z,388.96
2023-05-07T04:59:02.134Z,387.91
2023-05-07T05:04:50.364Z,387.65
2023-05-07T05:16:23.014Z,386.32
2023-05-07T05:26:51.013Z,385.91
2023-05-07T05:35:51.534Z,386.77
2023-05-07T05:37:20.370Z,385.71
2023-05-07T05:43:24.633Z,386.61
2023-05-07T05:49:16.064Z,386.61
2023-05-07T05:54:54.258Z,386.38
2023-05-07T06:00:41.581Z,386.77
2023-05-07T06:06:32.913Z,386.53
2023-05-07T06:12:20.662Z,386.60
2023-05-07T06:17:15.401Z,386.62
2023-05-07T06:22:39.742Z,386.60
2023-05-07T06:29:19.602Z,386.20
2023-05-07T06:35:43.632Z,385.75
2023-05-07T06:44:02.738Z,384.87
2023-05-07T06:49:23.067Z,385.15
2023-05-07T06:55:00.863Z,384.63
2023-05-07T07:00:12.949Z,384.77
2023-05-07T07:05:44.714Z,384.48
2023-05-07T07:10:48.364Z,383.87
2023-05-07T07:16:50.120Z,383.99
2023-05-07T07:22:27.716Z,384.08
2023-05-07T07:28:10.264Z,383.79
2023-05-07T07:46:31.849Z,382.89
2023-05-07T07:49:47.445Z,383.20
2023-05-07T07:55:36.885Z,382.90
2023-05-07T08:01:05.461Z,382.89
2023-05-07T08:06:05.985Z,382.12
2023-05-07T08:11:39.025Z,382.49
2023-05-07T08:17:33.193Z,382.87
2023-05-07T08:23:28.367Z,382.32
2023-05-07T08:28:59.800Z,382.02
2023-05-07T08:33:56.490Z,381.48
2023-05-07T08:39:10.226Z,381.38
2023-05-07T08:44:53.565Z,380.98
2023-05-07T08:50:59.388Z,380.47
2023-05-07T08:56:49.319Z,380.41
2023-05-07T09:02:27.046Z,380.22
2023-05-07T09:07:40.449Z,380.03
2023-05-07T09:12:58.135Z,379.55
2023-05-07T09:18:52.722Z,379.64
2023-05-07T09:24:39.550Z,379.54
2023-05-07T09:30:48.791Z,379.03
2023-05-07T09:35:57.164Z,379.43
2023-05-07T09:41:05.110Z,379.66
2023-05-07T09:46:13.066Z,379.63
2023-05-07T09:51:20.859Z,379.84
2023-05-07T09:56:28.189Z,380.55
2023-05-07T10:01:35.634Z,381.11
2023-05-07T10:06:49.968Z,381.24
2023-05-07T10:11:57.828Z,382.00
2023-05-07T10:17:05.264Z,382.86
2023-05-07T10:22:12.435Z,383.46
2023-05-07T10:27:19.958Z,384.24
2023-05-07T10:32:27.416Z,384.46
2023-05-07T10:37:34.654Z,385.03
2023-05-07T10:42:41.960Z,385.78
2023-05-07T10:47:49.278Z,385.76
2023-05-07T10:52:56.650Z,386.10
2023-05-07T10:58:03.933Z,386.36
2023-05-07T11:03:11.350Z,386.11
2023-05-07T11:08:18.498Z,386.31
2023-05-07T11:13:27.033Z,386.45
2023-05-07T11:18:34.304Z,387.10
2023-05-07T11:23:41.690Z,387.05
2023-05-07T11:28:48.847Z,387.77
2023-05-07T11:33:56.142Z,388.76
2023-05-07T11:39:12.219Z,388.72
2023-05-07T11:44:22.796Z,389.42
2023-05-07T11:49:27.499Z,389.98
2023-05-07T11:54:34.703Z,390.42
2023-05-07T11:59:42.288Z,390.90
2023-05-07T12:04:49.657Z,390.86
2023-05-07T12:09:56.781Z,391.41
2023-05-07T12:15:04.083Z,391.98
2023-05-07T12:20:11.488Z,392.09
2023-05-07T12:25:18.736Z,392.28
2023-05-07T12:30:25.892Z,392.50
2023-05-07T12:35:33.404Z,393.14
2023-05-07T12:40:40.662Z,393.11
2023-05-07T12:45:47.926Z,393.26
2023-05-07T12:50:55.976Z,393.59
2023-05-07T12:56:03.051Z,394.59
2023-05-07T13:01:10.293Z,395.16
2023-05-07T13:06:17.572Z,395.90
2023-05-07T13:11:25.137Z,396.81
2023-05-07T13:16:32.441Z,397.42
2023-05-07T13:21:39.710Z,398.27
2023-05-07T13:26:48.323Z,398.49
2023-05-07T13:31:56.416Z,398.93
2023-05-07T13:37:04.761Z,399.70
2023-05-07T13:42:12.034Z,400.04
2023-05-07T13:47:19.291Z,400.56
2023-05-07T13:52:26.574Z,400.07
2023-05-07T13:57:33.948Z,400.78
2023-05-07T14:02:41.332Z,400.85
2023-05-07T14:07:48.484Z,400.69
2023-05-07T14:12:55.784Z,401.43
2023-05-07T14:18:03.050Z,401.89
2023-05-07T14:23:10.314Z,402.37
2023-05-07T14:28:17.476Z,402.41
2023-05-07T14:33:24.721Z,402.83
2023-05-07T14:38:32.104Z,402.64
2023-05-07T14:43:39.419Z,403.16
2023-05-07T14:48:46.633Z,401.98
2023-05-07T14:53:53.951Z,399.70
2023-05-07T14:59:01.211Z,399.94
2023-05-07T15:04:08.564Z,398.72
2023-05-07T15:09:15.730Z,397.00
2023-05-07T15:14:23.171Z,396.57
2023-05-07T15:19:30.265Z,396.85
2023-05-07T15:24:37.653Z,397.78
2023-05-07T15:29:46.087Z,395.82
2023-05-07T15:34:53.914Z,395.98
2023-05-07T15:40:01.571Z,394.67
2023-05-07T15:45:09.305Z,393.66
2023-05-07T15:50:16.969Z,393.33
2023-05-07T15:55:24.695Z,394.02
2023-05-07T16:00:32.390Z,394.67
2023-05-07T16:05:40.110Z,394.19
2023-05-07T16:10:47.856Z,392.39
2023-05-07T16:15:55.542Z,391.16
2023-05-07T16:21:03.267Z,389.94
2023-05-07T16:26:11.033Z,388.12
2023-05-07T16:31:18.733Z,387.31
2023-05-07T16:36:26.380Z,385.72
2023-05-07T16:41:34.225Z,384.57
2023-05-07T16:46:41.974Z,383.30
2023-05-07T16:51:49.779Z,382.02
2023-05-07T16:56:57.521Z,380.85
2023-05-07T17:02:05.322Z,379.98
2023-05-07T17:07:13.045Z,377.95
2023-05-07T17:12:20.781Z,375.41
2023-05-07T17:17:28.692Z,375.11
2023-05-07T17:22:36.480Z,374.46
2023-05-07T17:27:44.120Z,374.03
2023-05-07T17:32:51.853Z,374.68
2023-05-07T17:38:01.587Z,372.85
2023-05-07T17:43:09.368Z,371.88
2023-05-07T17:48:17.109Z,371.53
2023-05-07T17:53:24.960Z,369.50
2023-05-07T17:58:36.526Z,368.39
2023-05-07T18:03:41.013Z,367.73
2023-05-07T18:08:48.727Z,367.90
2023-05-07T18:13:56.740Z,367.70
2023-05-07T18:19:04.558Z,366.53
2023-05-07T18:24:12.563Z,365.31
2023-05-07T18:29:20.628Z,364.96
2023-05-07T18:34:28.395Z,364.51
2023-05-07T18:39:37.996Z,364.92
2023-05-07T18:44:45.940Z,364.14
2023-05-07T18:49:54.008Z,363.71
2023-05-07T18:55:01.844Z,363.39
2023-05-07T19:00:09.774Z,362.76
2023-05-07T19:05:17.912Z,361.77
2023-05-07T19:10:25.804Z,361.50
2023-05-07T19:15:33.521Z,360.90
2023-05-07T19:20:41.232Z,360.04
2023-05-07T19:25:49.056Z,358.83
2023-05-07T19:30:56.898Z,357.92
2023-05-07T19:36:04.796Z,357.41
2023-05-07T19:41:12.522Z,356.58
2023-05-07T19:46:20.436Z,355.93
2023-05-07T19:51:28.373Z,355.50
2023-05-07T19:56:36.172Z,355.20
2023-05-07T20:01:44.204Z,354.99
2023-05-07T20:06:53.051Z,353.83
2023-05-07T20:12:01.084Z,354.17
2023-05-07T20:17:09.049Z,353.87
2023-05-07T20:22:56.424Z,353.45
2023-05-07T20:28:04.632Z,352.71
2023-05-07T20:33:27.379Z,352.20
2023-05-07T20:38:35.270Z,351.82
2023-05-07T20:43:52.120Z,352.53
2023-05-07T20:49:22.557Z,352.77
2023-05-07T20:54:39.062Z,351.96
2023-05-07T20:59:48.797Z,352.15
2023-05-07T21:04:56.130Z,352.03
2023-05-07T21:10:04.634Z,351.61
2023-05-07T21:15:12.151Z,352.48
2023-05-07T21:20:19.382Z,352.36
2023-05-07T21:25:26.645Z,352.12
2023-05-07T21:30:33.932Z,351.99
2023-05-07T21:35:41.150Z,352.36
2023-05-07T21:40:48.391Z,352.22
2023-05-07T21:45:58.818Z,351.87
2023-05-07T21:51:06.168Z,351.58
2023-05-07T21:56:13.374Z,351.70
2023-05-07T22:01:20.657Z,351.72
2023-05-07T22:06:27.979Z,351.27
2023-05-07T22:11:35.087Z,351.16
2023-05-07T22:16:42.440Z,351.35
2023-05-07T22:21:49.742Z,351.56
2023-05-07T22:26:57.177Z,351.60
2023-05-07T22:32:04.552Z,351.82
2023-05-07T22:37:11.752Z,351.94
2023-05-07T22:42:19.782Z,351.46
2023-05-07T22:47:27.310Z,351.67
2023-05-07T22:52:34.538Z,351.67
2023-05-07T22:57:41.743Z,351.64
2023-05-07T23:02:49.043Z,351.65
2023-05-07T23:07:56.194Z,351.57
2023-05-07T23:13:03.513Z,351.03
2023-05-07T23:18:10.801Z,350.62
2023-05-07T23:23:18.005Z,350.54
2023-05-07T23:28:25.280Z,350.48
2023-05-07T23:33:32.513Z,350.36
2023-05-07T23:39:29.373Z,350.77
2023-05-07T23:45:06.925Z,350.81
2023-05-07T23:53:08.314Z,351.01
2023-05-07T23:56:31.232Z,351.47
